Moncure, NC (27559)

5:00 PM EDT on October 21, 2014 (GMT -0400)
Log Barn Rd | Change Station
CLOSE
Current Station
Personal Weather Station
Location: Pittsboro, NC
Elevation: 400 ft
Nearby Weather Stations

Elev 400 ft 35.70 °N, 79.19 °W | Updated 1 minute ago

Partly Cloudy
Partly Cloudy
66.7 °F
Feels Like 66.7 °F
N
0.0
Wind Variable Wind from WSW
Gusts 0.0 mph

Today
High -- | Low -- °F
--% Chance of Precip.
Yesterday
High -- | Low -- °F
Precip. -- in
7:28 AM 6:33 PM
Waning Crescent, 4% visible
Pressure 29.83 in
Visibility 10.0 miles
Clouds Scattered Clouds 6500 ft
Scattered Clouds 7500 ft
Dew Point 58 °F
Humidity 75%
Rainfall 0.00 in
Snow Depth Not available.
UV 1 out of 12
Pollen 2.00 out of 12
Ozone Good
PM2.5 Good
Flu Activity Sporadic
METAR KTTA 212035Z AUTO 31004KT 10SM SCT065 SCT075 22/10 A2983 RMK AO2 T02220099

More Conditions Fewer Conditions

Pressure 29.83 in
Visibility 10.0 miles
Clouds Scattered Clouds 6500 ft
Scattered Clouds 7500 ft
Dew Point 58 °F
Humidity 75%
Rainfall 0.00 in
Snow Depth Not available.
UV 1 out of 12
Pollen 2.00 out of 12
Ozone Good
PM2.5 Good
Flu Activity Sporadic
METAR KTTA 212035Z AUTO 31004KT 10SM SCT065 SCT075 22/10 A2983 RMK AO2 T02220099

More Conditions Fewer Conditions

10-Day Weather Forecast

Almanac

Astronomy

Oct. 21, 2014 Rise Set
Actual Time 7:28 AM EDT 6:33 PM EDT
Civil Twilight 7:02 AM EDT 6:59 PM EDT
Nautical Twilight 6:32 AM EDT 7:29 PM EDT
Astronomical Twilight 6:03 AM EDT 7:58 PM EDT
Moon 5:15 AM EDT 5:23 PM EDT
Length of Visible Light 11h 56m
Length of Day
11h 05m
Tomorrow will be 2m 7s shorter.
Waning Crescent, 4% of the Moon is Illuminated
Today
Waning Crescent
Oct 23
New
Oct 30
First Quarter
Nov 6
Full
Nov 14
Last Quarter

Today's Extremes

State Highs State Lows

Community

WunderPhotos

Upload Photos

1,763,779 photos uploaded!

WunderBlogs® & News

Nearby

Air Quality

  Air Quality AQ Index Pollutant
Yesterday Good
OZONE
Yesterday Good
PM2.5
Current Good
OZONE
Current Good
PM2.5
Tuesday Good
OZONE
Tuesday Good
PM2.5
Wednesday Good
OZONE
Wednesday Good
PM2.5
Thursday Good
PM2.5
Thursday Good
OZONE
Friday Good
PM2.5
Friday Good
OZONE

Snow Depth

Station Depth Elevation
No new snow has been reported.

Earthquake Activity

City Distance Mag. Time & Date
No recent earthquake activity has been reported nearby.
Minimum magnitude displayed is 2.5.

Coastal Water Temperatures

Place Temperature
No Stations Reporting

Nearby Weather Stations